sensor_id;sensor_type;location;lat;lon;timestamp;temperature;humidity
43185;DHT22;28803;52.308;19.096;2023-06-22T00:00:18;19.30;99.90
43185;DHT22;28803;52.308;19.096;2023-06-22T00:03:05;19.30;99.90
43185;DHT22;28803;52.308;19.096;2023-06-22T00:05:32;19.30;99.90
43185;DHT22;28803;52.308;19.096;2023-06-22T00:08:02;19.20;99.90
43185;DHT22;28803;52.308;19.096;2023-06-22T00:10:30;19.20;99.90
43185;DHT22;28803;52.308;19.096;2023-06-22T00:12:57;19.20;99.90
43185;DHT22;28803;52.308;19.096;2023-06-22T00:15:25;19.10;99.90
43185;DHT22;28803;52.308;19.096;2023-06-22T00:17:52;19.10;99.90
43185;DHT22;28803;52.308;19.096;2023-06-22T00:20:20;19.10;99.90
43185;DHT22;28803;52.308;19.096;2023-06-22T00:22:47;19.00;99.90
43185;DHT22;28803;52.308;19.096;2023-06-22T00:25:15;19.00;99.90
43185;DHT22;28803;52.308;19.096;2023-06-22T00:27:42;19.00;99.90
43185;DHT22;28803;52.308;19.096;2023-06-22T00:30:10;18.90;99.90
43185;DHT22;28803;52.308;19.096;2023-06-22T00:32:37;18.90;99.90
43185;DHT22;28803;52.308;19.096;2023-06-22T00:35:05;18.90;99.90
43185;DHT22;28803;52.308;19.096;2023-06-22T00:37:32;18.80;99.90
43185;DHT22;28803;52.308;19.096;2023-06-22T00:39:59;18.90;99.90
43185;DHT22;28803;52.308;19.096;2023-06-22T00:42:26;18.80;99.90
43185;DHT22;28803;52.308;19.096;2023-06-22T00:44:54;18.80;99.90
43185;DHT22;28803;52.308;19.096;2023-06-22T00:47:21;18.80;99.90
43185;DHT22;28803;52.308;19.096;2023-06-22T00:49:49;18.80;99.90
43185;DHT22;28803;52.308;19.096;2023-06-22T00:52:20;18.80;99.90
43185;DHT22;28803;52.308;19.096;2023-06-22T00:54:50;18.70;99.90
43185;DHT22;28803;52.308;19.096;2023-06-22T00:57:19;18.70;99.90
43185;DHT22;28803;52.308;19.096;2023-06-22T00:59:48;18.70;99.90
43185;DHT22;28803;52.308;19.096;2023-06-22T01:02:16;18.70;99.90
43185;DHT22;28803;52.308;19.096;2023-06-22T01:04:44;18.60;99.90
43185;DHT22;28803;52.308;19.096;2023-06-22T01:07:30;18.60;99.90
43185;DHT22;28803;52.308;19.096;2023-06-22T01:10:16;18.50;99.90
43185;DHT22;28803;52.308;19.096;2023-06-22T01:12:50;18.50;99.90
43185;DHT22;28803;52.308;19.096;2023-06-22T01:15:30;18.50;99.90
43185;DHT22;28803;52.308;19.096;2023-06-22T01:17:59;18.50;99.90
43185;DHT22;28803;52.308;19.096;2023-06-22T01:20:28;18.50;99.90
43185;DHT22;28803;52.308;19.096;2023-06-22T01:25:33;18.40;99.90
43185;DHT22;28803;52.308;19.096;2023-06-22T01:30:58;18.40;99.90
43185;DHT22;28803;52.308;19.096;2023-06-22T01:33:34;18.30;99.90
43185;DHT22;28803;52.308;19.096;2023-06-22T01:36:02;18.30;99.90
43185;DHT22;28803;52.308;19.096;2023-06-22T01:38:30;18.30;99.90
43185;DHT22;28803;52.308;19.096;2023-06-22T01:41:00;18.20;99.90
43185;DHT22;28803;52.308;19.096;2023-06-22T01:43:28;18.20;99.90
43185;DHT22;28803;52.308;19.096;2023-06-22T01:45:58;18.20;99.90
43185;DHT22;28803;52.308;19.096;2023-06-22T01:48:26;18.20;99.90
43185;DHT22;28803;52.308;19.096;2023-06-22T01:50:54;18.20;99.90
43185;DHT22;28803;52.308;19.096;2023-06-22T01:53:22;18.10;99.90
43185;DHT22;28803;52.308;19.096;2023-06-22T01:55:49;18.10;99.90
43185;DHT22;28803;52.308;19.096;2023-06-22T01:58:17;18.00;99.90
43185;DHT22;28803;52.308;19.096;2023-06-22T02:00:50;18.00;99.90
43185;DHT22;28803;52.308;19.096;2023-06-22T02:03:23;18.00;99.90
43185;DHT22;28803;52.308;19.096;2023-06-22T02:05:56;17.90;99.90
43185;DHT22;28803;52.308;19.096;2023-06-22T02:08:29;17.90;99.90
43185;DHT22;28803;52.308;19.096;2023-06-22T02:10:58;17.90;99.90
43185;DHT22;28803;52.308;19.096;2023-06-22T02:13:26;17.80;99.90
43185;DHT22;28803;52.308;19.096;2023-06-22T02:15:54;17.80;99.90
43185;DHT22;28803;52.308;19.096;2023-06-22T02:18:21;17.80;99.90
43185;DHT22;28803;52.308;19.096;2023-06-22T02:20:49;17.70;99.90
43185;DHT22;28803;52.308;19.096;2023-06-22T02:23:16;17.70;99.90
43185;DHT22;28803;52.308;19.096;2023-06-22T02:25:44;17.70;99.90
43185;DHT22;28803;52.308;19.096;2023-06-22T02:28:11;17.70;99.90
43185;DHT22;28803;52.308;19.096;2023-06-22T02:30:38;17.70;99.90
43185;DHT22;28803;52.308;19.096;2023-06-22T02:33:05;17.70;99.90
43185;DHT22;28803;52.308;19.096;2023-06-22T02:35:33;17.60;99.90
43185;DHT22;28803;52.308;19.096;2023-06-22T02:38:03;17.70;99.90
43185;DHT22;28803;52.308;19.096;2023-06-22T02:40:31;17.70;99.90
43185;DHT22;28803;52.308;19.096;2023-06-22T02:42:59;17.70;99.90
43185;DHT22;28803;52.308;19.096;2023-06-22T02:45:30;17.70;99.90
43185;DHT22;28803;52.308;19.096;2023-06-22T02:47:57;17.70;99.90
43185;DHT22;28803;52.308;19.096;2023-06-22T02:50:25;17.70;99.90
43185;DHT22;28803;52.308;19.096;2023-06-22T02:52:53;17.70;99.90
43185;DHT22;28803;52.308;19.096;2023-06-22T02:55:20;17.70;99.90
43185;DHT22;28803;52.308;19.096;2023-06-22T02:57:48;17.70;99.90
43185;DHT22;28803;52.308;19.096;2023-06-22T03:00:20;17.70;99.90
43185;DHT22;28803;52.308;19.096;2023-06-22T03:02:48;17.70;99.90
43185;DHT22;28803;52.308;19.096;2023-06-22T03:05:17;17.70;99.90
43185;DHT22;28803;52.308;19.096;2023-06-22T03:07:45;17.70;99.90
43185;DHT22;28803;52.308;19.096;2023-06-22T03:10:13;17.80;99.90
43185;DHT22;28803;52.308;19.096;2023-06-22T03:12:42;17.70;99.90
43185;DHT22;28803;52.308;19.096;2023-06-22T03:15:11;17.80;99.90
43185;DHT22;28803;52.308;19.096;2023-06-22T03:17:39;17.80;99.90
43185;DHT22;28803;52.308;19.096;2023-06-22T03:20:09;17.80;99.90
43185;DHT22;28803;52.308;19.096;2023-06-22T03:22:41;17.90;99.90
43185;DHT22;28803;52.308;19.096;2023-06-22T03:25:10;17.90;99.90
43185;DHT22;28803;52.308;19.096;2023-06-22T03:27:37;18.00;99.90
43185;DHT22;28803;52.308;19.096;2023-06-22T03:30:06;18.00;99.90
43185;DHT22;28803;52.308;19.096;2023-06-22T03:32:34;18.10;99.90
43185;DHT22;28803;52.308;19.096;2023-06-22T03:35:02;18.20;99.90
43185;DHT22;28803;52.308;19.096;2023-06-22T03:37:29;18.30;99.90
43185;DHT22;28803;52.308;19.096;2023-06-22T03:39:56;18.30;99.90
43185;DHT22;28803;52.308;19.096;2023-06-22T03:42:23;18.40;99.90
43185;DHT22;28803;52.308;19.096;2023-06-22T03:44:51;18.40;99.90
43185;DHT22;28803;52.308;19.096;2023-06-22T03:47:18;18.60;99.90
43185;DHT22;28803;52.308;19.096;2023-06-22T03:49:46;18.70;99.90
43185;DHT22;28803;52.308;19.096;2023-06-22T03:52:13;18.80;99.90
43185;DHT22;28803;52.308;19.096;2023-06-22T03:54:40;18.90;99.90
43185;DHT22;28803;52.308;19.096;2023-06-22T03:57:08;18.90;99.90
43185;DHT22;28803;52.308;19.096;2023-06-22T03:59:35;18.90;99.90
43185;DHT22;28803;52.308;19.096;2023-06-22T04:02:03;18.90;99.90
43185;DHT22;28803;52.308;19.096;2023-06-22T04:04:31;19.00;95.20
43185;DHT22;28803;52.308;19.096;2023-06-22T04:06:59;19.00;92.40
43185;DHT22;28803;52.308;19.096;2023-06-22T04:09:27;19.00;89.60
43185;DHT22;28803;52.308;19.096;2023-06-22T04:11:54;19.00;84.70
43185;DHT22;28803;52.308;19.096;2023-06-22T04:14:22;19.10;77.00
43185;DHT22;28803;52.308;19.096;2023-06-22T04:16:49;19.10;68.90
43185;DHT22;28803;52.308;19.096;2023-06-22T04:19:17;19.10;67.20
43185;DHT22;28803;52.308;19.096;2023-06-22T04:21:44;19.10;65.30
43185;DHT22;28803;52.308;19.096;2023-06-22T04:24:12;19.10;63.20
43185;DHT22;28803;52.308;19.096;2023-06-22T04:26:40;19.20;62.60
43185;DHT22;28803;52.308;19.096;2023-06-22T04:29:09;19.20;59.30
43185;DHT22;28803;52.308;19.096;2023-06-22T04:31:36;19.20;58.00
43185;DHT22;28803;52.308;19.096;2023-06-22T04:34:06;19.20;50.70
43185;DHT22;28803;52.308;19.096;2023-06-22T04:36:40;19.30;47.10
43185;DHT22;28803;52.308;19.096;2023-06-22T04:39:12;19.30;46.40
43185;DHT22;28803;52.308;19.096;2023-06-22T04:41:40;19.30;42.40
43185;DHT22;28803;52.308;19.096;2023-06-22T04:44:12;19.40;41.80
43185;DHT22;28803;52.308;19.096;2023-06-22T04:46:40;19.50;37.40
43185;DHT22;28803;52.308;19.096;2023-06-22T04:49:08;19.60;21.50
43185;DHT22;28803;52.308;19.096;2023-06-22T04:51:40;19.70;5.00
43185;DHT22;28803;52.308;19.096;2023-06-22T04:54:09;19.90;1.00
43185;DHT22;28803;52.308;19.096;2023-06-22T04:56:37;20.00;1.00
43185;DHT22;28803;52.308;19.096;2023-06-22T04:59:05;20.20;1.00
43185;DHT22;28803;52.308;19.096;2023-06-22T05:01:32;20.50;1.00
43185;DHT22;28803;52.308;19.096;2023-06-22T05:04:00;20.70;1.00
43185;DHT22;28803;52.308;19.096;2023-06-22T05:06:28;20.90;1.00
43185;DHT22;28803;52.308;19.096;2023-06-22T05:08:56;21.10;99.90
43185;DHT22;28803;52.308;19.096;2023-06-22T05:11:27;21.30;99.90
43185;DHT22;28803;52.308;19.096;2023-06-22T05:13:55;21.30;99.90
43185;DHT22;28803;52.308;19.096;2023-06-22T05:16:23;21.40;40.20
43185;DHT22;28803;52.308;19.096;2023-06-22T05:18:52;21.50;1.00
43185;DHT22;28803;52.308;19.096;2023-06-22T05:21:26;21.60;1.00
43185;DHT22;28803;52.308;19.096;2023-06-22T05:23:54;21.60;1.00
43185;DHT22;28803;52.308;19.096;2023-06-22T05:26:22;21.70;99.90
43185;DHT22;28803;52.308;19.096;2023-06-22T05:28:50;21.80;1.00
43185;DHT22;28803;52.308;19.096;2023-06-22T05:31:17;21.80;99.90
43185;DHT22;28803;52.308;19.096;2023-06-22T05:33:48;21.90;99.90
43185;DHT22;28803;52.308;19.096;2023-06-22T05:36:16;22.00;99.90
43185;DHT22;28803;52.308;19.096;2023-06-22T05:38:43;22.10;99.90
43185;DHT22;28803;52.308;19.096;2023-06-22T05:41:10;22.20;99.90
43185;DHT22;28803;52.308;19.096;2023-06-22T05:43:38;22.20;99.90
43185;DHT22;28803;52.308;19.096;2023-06-22T05:46:05;22.30;99.90
43185;DHT22;28803;52.308;19.096;2023-06-22T05:48:33;22.40;99.90
43185;DHT22;28803;52.308;19.096;2023-06-22T05:51:00;22.40;99.90
43185;DHT22;28803;52.308;19.096;2023-06-22T05:53:27;22.50;99.90
43185;DHT22;28803;52.308;19.096;2023-06-22T05:55:55;22.50;99.90
43185;DHT22;28803;52.308;19.096;2023-06-22T05:58:22;22.60;99.90
43185;DHT22;28803;52.308;19.096;2023-06-22T06:00:49;22.70;99.90
43185;DHT22;28803;52.308;19.096;2023-06-22T06:03:18;22.80;99.90
43185;DHT22;28803;52.308;19.096;2023-06-22T06:05:45;22.90;99.90
43185;DHT22;28803;52.308;19.096;2023-06-22T06:08:13;23.00;99.90
43185;DHT22;28803;52.308;19.096;2023-06-22T06:10:40;23.10;99.90
43185;DHT22;28803;52.308;19.096;2023-06-22T06:13:07;23.30;99.90
43185;DHT22;28803;52.308;19.096;2023-06-22T06:15:35;23.40;99.90
43185;DHT22;28803;52.308;19.096;2023-06-22T06:18:02;23.50;99.90
43185;DHT22;28803;52.308;19.096;2023-06-22T06:20:32;23.60;99.90
43185;DHT22;28803;52.308;19.096;2023-06-22T06:23:01;23.70;99.90
43185;DHT22;28803;52.308;19.096;2023-06-22T06:25:28;23.80;99.90
43185;DHT22;28803;52.308;19.096;2023-06-22T06:27:56;23.90;99.90
43185;DHT22;28803;52.308;19.096;2023-06-22T06:30:23;24.00;99.90
43185;DHT22;28803;52.308;19.096;2023-06-22T06:32:50;24.20;99.90
43185;DHT22;28803;52.308;19.096;2023-06-22T06:35:18;24.30;99.90
43185;DHT22;28803;52.308;19.096;2023-06-22T06:37:47;24.60;99.90
43185;DHT22;28803;52.308;19.096;2023-06-22T06:40:15;24.80;99.90
43185;DHT22;28803;52.308;19.096;2023-06-22T06:42:45;25.00;99.90
43185;DHT22;28803;52.308;19.096;2023-06-22T06:45:19;25.30;99.90
43185;DHT22;28803;52.308;19.096;2023-06-22T06:47:47;25.60;99.90
43185;DHT22;28803;52.308;19.096;2023-06-22T06:50:15;26.00;99.90
43185;DHT22;28803;52.308;19.096;2023-06-22T06:52:43;26.50;99.00
43185;DHT22;28803;52.308;19.096;2023-06-22T06:55:10;26.90;97.60
43185;DHT22;28803;52.308;19.096;2023-06-22T06:57:40;27.30;95.50
43185;DHT22;28803;52.308;19.096;2023-06-22T07:00:12;27.50;94.60
43185;DHT22;28803;52.308;19.096;2023-06-22T07:02:52;28.00;93.60
43185;DHT22;28803;52.308;19.096;2023-06-22T07:05:19;28.50;91.80
43185;DHT22;28803;52.308;19.096;2023-06-22T07:07:47;28.90;91.00
43185;DHT22;28803;52.308;19.096;2023-06-22T07:10:14;29.10;88.00
43185;DHT22;28803;52.308;19.096;2023-06-22T07:12:42;29.30;84.70
43185;DHT22;28803;52.308;19.096;2023-06-22T07:15:10;29.50;84.20
43185;DHT22;28803;52.308;19.096;2023-06-22T07:17:40;30.10;82.60
43185;DHT22;28803;52.308;19.096;2023-06-22T07:20:08;30.80;80.20
43185;DHT22;28803;52.308;19.096;2023-06-22T07:22:41;31.20;78.00
43185;DHT22;28803;52.308;19.096;2023-06-22T07:25:09;31.40;74.10
43185;DHT22;28803;52.308;19.096;2023-06-22T07:27:38;31.90;72.50
43185;DHT22;28803;52.308;19.096;2023-06-22T07:30:07;32.10;71.40
43185;DHT22;28803;52.308;19.096;2023-06-22T07:32:35;32.10;70.40
43185;DHT22;28803;52.308;19.096;2023-06-22T07:35:03;32.20;70.10
43185;DHT22;28803;52.308;19.096;2023-06-22T07:37:31;32.60;68.00
43185;DHT22;28803;52.308;19.096;2023-06-22T07:40:01;32.80;67.20
43185;DHT22;28803;52.308;19.096;2023-06-22T07:42:29;32.90;64.70
43185;DHT22;28803;52.308;19.096;2023-06-22T07:45:00;33.20;65.00
43185;DHT22;28803;52.308;19.096;2023-06-22T07:47:28;33.50;64.00
43185;DHT22;28803;52.308;19.096;2023-06-22T07:49:58;33.80;61.20
43185;DHT22;28803;52.308;19.096;2023-06-22T07:52:25;34.50;61.40
43185;DHT22;28803;52.308;19.096;2023-06-22T07:54:52;34.80;60.30
43185;DHT22;28803;52.308;19.096;2023-06-22T07:57:22;34.80;59.40
43185;DHT22;28803;52.308;19.096;2023-06-22T07:59:49;34.60;58.60
43185;DHT22;28803;52.308;19.096;2023-06-22T08:02:17;34.40;57.20
43185;DHT22;28803;52.308;19.096;2023-06-22T08:04:44;34.50;57.00
43185;DHT22;28803;52.308;19.096;2023-06-22T08:07:12;35.10;57.00
43185;DHT22;28803;52.308;19.096;2023-06-22T08:09:46;35.80;56.30
43185;DHT22;28803;52.308;19.096;2023-06-22T08:12:15;36.40;55.00
43185;DHT22;28803;52.308;19.096;2023-06-22T08:14:42;36.70;54.70
43185;DHT22;28803;52.308;19.096;2023-06-22T08:17:12;36.40;52.70
43185;DHT22;28803;52.308;19.096;2023-06-22T08:19:39;36.70;52.10
43185;DHT22;28803;52.308;19.096;2023-06-22T08:22:07;37.40;52.40
43185;DHT22;28803;52.308;19.096;2023-06-22T08:24:34;37.90;52.00
43185;DHT22;28803;52.308;19.096;2023-06-22T08:27:01;38.20;50.60
43185;DHT22;28803;52.308;19.096;2023-06-22T08:29:29;38.10;49.70
43185;DHT22;28803;52.308;19.096;2023-06-22T08:31:56;37.70;49.90
43185;DHT22;28803;52.308;19.096;2023-06-22T08:34:23;37.70;50.10
43185;DHT22;28803;52.308;19.096;2023-06-22T08:36:55;38.10;49.60
43185;DHT22;28803;52.308;19.096;2023-06-22T08:39:22;38.20;50.60
43185;DHT22;28803;52.308;19.096;2023-06-22T08:41:49;38.00;50.30
43185;DHT22;28803;52.308;19.096;2023-06-22T08:44:18;37.80;49.70
43185;DHT22;28803;52.308;19.096;2023-06-22T08:46:46;38.00;48.70
43185;DHT22;28803;52.308;19.096;2023-06-22T08:49:15;38.20;49.20
43185;DHT22;28803;52.308;19.096;2023-06-22T08:51:43;39.20;48.90
43185;DHT22;28803;52.308;19.096;2023-06-22T08:54:12;39.80;48.20
43185;DHT22;28803;52.308;19.096;2023-06-22T08:56:40;40.10;48.10
43185;DHT22;28803;52.308;19.096;2023-06-22T08:59:07;40.30;46.30
43185;DHT22;28803;52.308;19.096;2023-06-22T09:01:35;40.00;45.50
43185;DHT22;28803;52.308;19.096;2023-06-22T09:04:02;39.80;45.30
43185;DHT22;28803;52.308;19.096;2023-06-22T09:06:31;40.10;45.60
43185;DHT22;28803;52.308;19.096;2023-06-22T09:08:58;40.60;44.90
43185;DHT22;28803;52.308;19.096;2023-06-22T09:11:27;40.60;45.00
43185;DHT22;28803;52.308;19.096;2023-06-22T09:13:54;40.30;44.50
43185;DHT22;28803;52.308;19.096;2023-06-22T09:16:21;40.30;44.00
43185;DHT22;28803;52.308;19.096;2023-06-22T09:18:49;40.70;44.20
43185;DHT22;28803;52.308;19.096;2023-06-22T09:21:16;41.10;43.80
43185;DHT22;28803;52.308;19.096;2023-06-22T09:23:43;41.60;42.80
43185;DHT22;28803;52.308;19.096;2023-06-22T09:26:13;41.90;42.50
43185;DHT22;28803;52.308;19.096;2023-06-22T09:28:41;42.20;42.80
43185;DHT22;28803;52.308;19.096;2023-06-22T09:31:08;42.10;42.30
43185;DHT22;28803;52.308;19.096;2023-06-22T09:33:36;41.80;42.10
43185;DHT22;28803;52.308;19.096;2023-06-22T09:36:05;42.10;42.40
43185;DHT22;28803;52.308;19.096;2023-06-22T09:38:37;42.40;42.20
43185;DHT22;28803;52.308;19.096;2023-06-22T09:41:05;42.20;40.50
43185;DHT22;28803;52.308;19.096;2023-06-22T09:43:32;41.90;39.60
43185;DHT22;28803;52.308;19.096;2023-06-22T09:46:02;41.40;39.90
43185;DHT22;28803;52.308;19.096;2023-06-22T09:48:29;41.30;40.20
43185;DHT22;28803;52.308;19.096;2023-06-22T09:50:57;41.80;41.30
43185;DHT22;28803;52.308;19.096;2023-06-22T09:53:24;42.60;39.90
43185;DHT22;28803;52.308;19.096;2023-06-22T09:55:52;42.70;40.40
43185;DHT22;28803;52.308;19.096;2023-06-22T09:58:19;42.60;41.30
43185;DHT22;28803;52.308;19.096;2023-06-22T10:00:46;42.30;40.50
43185;DHT22;28803;52.308;19.096;2023-06-22T10:03:13;41.80;41.50
43185;DHT22;28803;52.308;19.096;2023-06-22T10:05:41;41.80;41.40
43185;DHT22;28803;52.308;19.096;2023-06-22T10:08:10;42.00;41.00
43185;DHT22;28803;52.308;19.096;2023-06-22T10:10:38;42.00;39.90
43185;DHT22;28803;52.308;19.096;2023-06-22T10:13:09;41.70;40.00
43185;DHT22;28803;52.308;19.096;2023-06-22T10:15:37;42.00;39.30
43185;DHT22;28803;52.308;19.096;2023-06-22T10:18:05;42.30;39.00
43185;DHT22;28803;52.308;19.096;2023-06-22T10:20:32;42.50;35.30
43185;DHT22;28803;52.308;19.096;2023-06-22T10:22:59;42.70;34.70
43185;DHT22;28803;52.308;19.096;2023-06-22T10:25:27;42.70;33.20
43185;DHT22;28803;52.308;19.096;2023-06-22T10:27:55;43.20;33.20
43185;DHT22;28803;52.308;19.096;2023-06-22T10:30:22;43.10;34.20
43185;DHT22;28803;52.308;19.096;2023-06-22T10:32:50;43.00;34.90
43185;DHT22;28803;52.308;19.096;2023-06-22T10:35:17;43.10;32.50
43185;DHT22;28803;52.308;19.096;2023-06-22T10:37:46;42.40;33.00
43185;DHT22;28803;52.308;19.096;2023-06-22T10:40:14;42.50;34.20
43185;DHT22;28803;52.308;19.096;2023-06-22T10:42:42;42.00;33.40
43185;DHT22;28803;52.308;19.096;2023-06-22T10:45:10;42.50;31.30
43185;DHT22;28803;52.308;19.096;2023-06-22T10:47:37;42.90;30.80
43185;DHT22;28803;52.308;19.096;2023-06-22T10:50:05;42.60;32.10
43185;DHT22;28803;52.308;19.096;2023-06-22T10:52:33;42.30;29.40
43185;DHT22;28803;52.308;19.096;2023-06-22T10:55:00;42.30;29.00
43185;DHT22;28803;52.308;19.096;2023-06-22T10:57:27;42.90;29.10
43185;DHT22;28803;52.308;19.096;2023-06-22T10:59:55;43.80;28.00
43185;DHT22;28803;52.308;19.096;2023-06-22T11:02:23;44.70;27.40
43185;DHT22;28803;52.308;19.096;2023-06-22T11:04:51;44.50;27.70
43185;DHT22;28803;52.308;19.096;2023-06-22T11:07:18;44.10;27.10
43185;DHT22;28803;52.308;19.096;2023-06-22T11:09:46;44.40;27.70
43185;DHT22;28803;52.308;19.096;2023-06-22T11:12:13;44.80;26.50
43185;DHT22;28803;52.308;19.096;2023-06-22T11:14:41;44.80;24.20
43185;DHT22;28803;52.308;19.096;2023-06-22T11:17:08;44.10;23.80
43185;DHT22;28803;52.308;19.096;2023-06-22T11:19:36;44.30;24.00
43185;DHT22;28803;52.308;19.096;2023-06-22T11:22:03;44.30;23.70
43185;DHT22;28803;52.308;19.096;2023-06-22T11:24:31;44.40;24.00
43185;DHT22;28803;52.308;19.096;2023-06-22T11:26:58;44.90;22.50
43185;DHT22;28803;52.308;19.096;2023-06-22T11:29:26;45.00;23.30
43185;DHT22;28803;52.308;19.096;2023-06-22T11:32:05;45.10;21.00
43185;DHT22;28803;52.308;19.096;2023-06-22T11:34:32;45.30;1.00
43185;DHT22;28803;52.308;19.096;2023-06-22T11:36:59;45.30;1.00
43185;DHT22;28803;52.308;19.096;2023-06-22T11:39:27;44.40;1.00
43185;DHT22;28803;52.308;19.096;2023-06-22T11:42:11;44.60;1.00
43185;DHT22;28803;52.308;19.096;2023-06-22T11:44:39;44.30;99.90
43185;DHT22;28803;52.308;19.096;2023-06-22T11:47:06;44.50;99.90
43185;DHT22;28803;52.308;19.096;2023-06-22T11:49:34;44.10;99.90
43185;DHT22;28803;52.308;19.096;2023-06-22T11:52:01;44.30;99.90
43185;DHT22;28803;52.308;19.096;2023-06-22T11:54:28;44.50;99.90
43185;DHT22;28803;52.308;19.096;2023-06-22T11:56:55;44.90;99.90
43185;DHT22;28803;52.308;19.096;2023-06-22T11:59:22;44.90;99.90
43185;DHT22;28803;52.308;19.096;2023-06-22T12:01:50;44.80;99.90
43185;DHT22;28803;52.308;19.096;2023-06-22T12:04:20;44.80;99.90
43185;DHT22;28803;52.308;19.096;2023-06-22T12:06:47;45.10;99.90
43185;DHT22;28803;52.308;19.096;2023-06-22T12:09:14;45.30;99.90
43185;DHT22;28803;52.308;19.096;2023-06-22T12:11:41;45.10;99.90
43185;DHT22;28803;52.308;19.096;2023-06-22T12:14:09;45.50;99.90
43185;DHT22;28803;52.308;19.096;2023-06-22T12:16:36;45.50;99.90
43185;DHT22;28803;52.308;19.096;2023-06-22T12:19:03;45.90;99.90
43185;DHT22;28803;52.308;19.096;2023-06-22T12:21:30;45.80;99.90
43185;DHT22;28803;52.308;19.096;2023-06-22T12:23:58;45.90;99.90
43185;DHT22;28803;52.308;19.096;2023-06-22T12:26:25;45.50;99.90
43185;DHT22;28803;52.308;19.096;2023-06-22T12:28:52;44.60;99.90
43185;DHT22;28803;52.308;19.096;2023-06-22T12:31:20;44.30;99.90
43185;DHT22;28803;52.308;19.096;2023-06-22T12:33:47;44.40;99.90
43185;DHT22;28803;52.308;19.096;2023-06-22T12:36:15;44.90;99.90
43185;DHT22;28803;52.308;19.096;2023-06-22T12:38:43;44.90;99.90
43185;DHT22;28803;52.308;19.096;2023-06-22T12:41:10;44.60;99.90
43185;DHT22;28803;52.308;19.096;2023-06-22T12:43:38;44.70;99.90
43185;DHT22;28803;52.308;19.096;2023-06-22T12:46:05;44.40;99.90
43185;DHT22;28803;52.308;19.096;2023-06-22T12:48:32;44.60;99.90
43185;DHT22;28803;52.308;19.096;2023-06-22T12:51:00;44.10;99.90
43185;DHT22;28803;52.308;19.096;2023-06-22T12:53:28;44.40;99.90
43185;DHT22;28803;52.308;19.096;2023-06-22T12:55:55;45.20;99.90
43185;DHT22;28803;52.308;19.096;2023-06-22T12:58:22;45.20;99.90
43185;DHT22;28803;52.308;19.096;2023-06-22T13:00:50;44.90;99.90
43185;DHT22;28803;52.308;19.096;2023-06-22T13:03:17;44.50;99.90
43185;DHT22;28803;52.308;19.096;2023-06-22T13:05:44;44.50;99.90
43185;DHT22;28803;52.308;19.096;2023-06-22T13:08:12;44.60;99.90
43185;DHT22;28803;52.308;19.096;2023-06-22T13:10:39;44.20;99.90
43185;DHT22;28803;52.308;19.096;2023-06-22T13:13:06;43.60;99.90
43185;DHT22;28803;52.308;19.096;2023-06-22T13:15:33;43.20;99.90
43185;DHT22;28803;52.308;19.096;2023-06-22T13:18:01;43.00;99.90
43185;DHT22;28803;52.308;19.096;2023-06-22T13:20:29;42.60;99.90
43185;DHT22;28803;52.308;19.096;2023-06-22T13:22:56;42.40;99.90
43185;DHT22;28803;52.308;19.096;2023-06-22T13:25:23;41.70;99.90
43185;DHT22;28803;52.308;19.096;2023-06-22T13:27:54;40.40;99.90
43185;DHT22;28803;52.308;19.096;2023-06-22T13:30:21;39.00;99.90
43185;DHT22;28803;52.308;19.096;2023-06-22T13:32:49;38.10;99.90
43185;DHT22;28803;52.308;19.096;2023-06-22T13:35:16;38.10;99.90
43185;DHT22;28803;52.308;19.096;2023-06-22T13:37:44;38.10;99.90
43185;DHT22;28803;52.308;19.096;2023-06-22T13:40:11;38.50;99.90
43185;DHT22;28803;52.308;19.096;2023-06-22T13:42:39;39.20;99.90
43185;DHT22;28803;52.308;19.096;2023-06-22T13:45:07;40.40;99.90
43185;DHT22;28803;52.308;19.096;2023-06-22T13:47:34;40.90;99.90
43185;DHT22;28803;52.308;19.096;2023-06-22T13:50:02;41.00;99.90
43185;DHT22;28803;52.308;19.096;2023-06-22T13:52:29;41.10;99.90
43185;DHT22;28803;52.308;19.096;2023-06-22T13:54:56;40.60;99.90
43185;DHT22;28803;52.308;19.096;2023-06-22T13:57:24;40.40;99.90
43185;DHT22;28803;52.308;19.096;2023-06-22T13:59:51;40.00;99.90
43185;DHT22;28803;52.308;19.096;2023-06-22T14:02:18;39.40;99.90
43185;DHT22;28803;52.308;19.096;2023-06-22T14:04:46;38.60;99.90
43185;DHT22;28803;52.308;19.096;2023-06-22T14:07:13;38.30;99.90
43185;DHT22;28803;52.308;19.096;2023-06-22T14:09:40;38.00;99.90
43185;DHT22;28803;52.308;19.096;2023-06-22T14:12:09;37.80;99.90
43185;DHT22;28803;52.308;19.096;2023-06-22T14:14:36;37.90;99.90
43185;DHT22;28803;52.308;19.096;2023-06-22T14:17:04;37.90;99.90
43185;DHT22;28803;52.308;19.096;2023-06-22T14:19:32;37.80;99.90
43185;DHT22;28803;52.308;19.096;2023-06-22T14:21:59;38.00;99.90
43185;DHT22;28803;52.308;19.096;2023-06-22T14:24:26;38.20;99.90
43185;DHT22;28803;52.308;19.096;2023-06-22T14:26:57;38.40;99.90
43185;DHT22;28803;52.308;19.096;2023-06-22T14:29:25;39.00;99.90
43185;DHT22;28803;52.308;19.096;2023-06-22T14:31:53;39.40;99.90
43185;DHT22;28803;52.308;19.096;2023-06-22T14:34:20;39.60;99.90
43185;DHT22;28803;52.308;19.096;2023-06-22T14:36:47;39.60;99.90
43185;DHT22;28803;52.308;19.096;2023-06-22T14:39:14;39.60;99.90
43185;DHT22;28803;52.308;19.096;2023-06-22T14:41:42;39.60;99.90
43185;DHT22;28803;52.308;19.096;2023-06-22T14:44:10;40.20;99.90
43185;DHT22;28803;52.308;19.096;2023-06-22T14:46:38;40.40;99.90
43185;DHT22;28803;52.308;19.096;2023-06-22T14:49:05;40.80;99.90
43185;DHT22;28803;52.308;19.096;2023-06-22T14:51:32;40.90;99.90
43185;DHT22;28803;52.308;19.096;2023-06-22T14:53:59;40.40;99.90
43185;DHT22;28803;52.308;19.096;2023-06-22T14:56:27;39.80;99.90
43185;DHT22;28803;52.308;19.096;2023-06-22T14:58:54;39.60;99.90
43185;DHT22;28803;52.308;19.096;2023-06-22T15:01:21;39.40;99.90
43185;DHT22;28803;52.308;19.096;2023-06-22T15:03:48;38.50;99.90
43185;DHT22;28803;52.308;19.096;2023-06-22T15:06:16;37.40;99.90
43185;DHT22;28803;52.308;19.096;2023-06-22T15:08:43;36.50;99.90
43185;DHT22;28803;52.308;19.096;2023-06-22T15:11:11;35.50;99.90
43185;DHT22;28803;52.308;19.096;2023-06-22T15:13:39;34.70;99.90
43185;DHT22;28803;52.308;19.096;2023-06-22T15:16:07;33.70;99.90
43185;DHT22;28803;52.308;19.096;2023-06-22T15:18:35;32.90;99.90
43185;DHT22;28803;52.308;19.096;2023-06-22T15:21:04;32.20;99.90
43185;DHT22;28803;52.308;19.096;2023-06-22T15:23:32;31.70;99.90
43185;DHT22;28803;52.308;19.096;2023-06-22T15:26:03;31.30;99.90
43185;DHT22;28803;52.308;19.096;2023-06-22T15:28:32;30.90;99.90